RJSA

Details ICAO RJSA (AOJ)
Name AOMORI
Region Japan
Timezone Asia/Tokyo (UTC+9.0)
Plans Departing 61
Arriving 44
Stats Elevation 664 ft / 202 m (AMSL)
Location 40.733272° 140.688594°
Runways 1
Magnetic Variation 8.960° W
Sunrise 2018-05-25 19:13:16 UTC / 2018-05-26 04:13:16 Local
Sunset 2018-05-26 09:58:06 UTC / 2018-05-26 18:58:06 Local
Advertisement - Login to hide

Runways

ID Width Length Bearing (true) Bearing (mag) Surface Threshold Offset Overrun Length
06 200 ft / 61 m 9,838 ft / 2,999 m 51.79° 60.75° Asphalt 0 ft / 0 m 200 ft / 61 m
24 200 ft / 61 m 9,838 ft / 2,999 m 231.81° 240.77° Asphalt 0 ft / 0 m 200 ft / 61 m

Approach Navaids

Runway Type Ident Frequency Range Bearing (true) Bearing (mag) Slope Elevation
24 Localiser IMR 111.90 MHz 18 nm / 33 km 231.78° 240.74° - 664 ft / 202 m (AMSL)
24 Glidescope IMR 111.90 MHz 10 nm / 19 km 231.80° 240.76° 3.00° 664 ft / 202 m (AMSL)
24 DME IMR 111.90 MHz 18 nm / 33 km - - - 676 ft / 206 m (AMSL)

Map

Weather


0- 5 10 15 20 25 30 35+ Temperature / ° C

Clouds and Precipitation
Forecast for 2018-05-26 12:00 UTC. Updated 2 hours ago

Ground ~20,000 ft ~40,000 ft Winds

METAR

RJSA 261200Z 21004KT 9999 FEW030 SCT/// 06/05 Q1012

TAF

TAF RJSA 261105Z 2612/2718 20004KT 9999 FEW030 BECMG 2622/2700 02008KT

Frequencies

Tower 126.20 MHz TWR
Tower 118.30 MHz TWR
Warning: Do not use this data for real-world aviation or navigation. No guarantee of current accuracy is given.